sensor_id;sensor_type;location;lat;lon;timestamp;temperature;humidity
42479;DHT22;28110;47.080;9.476;2023-08-17T00:01:25;21.50;99.90
42479;DHT22;28110;47.080;9.476;2023-08-17T00:03:51;21.60;99.90
42479;DHT22;28110;47.080;9.476;2023-08-17T00:06:16;21.60;99.90
42479;DHT22;28110;47.080;9.476;2023-08-17T00:08:42;21.60;99.90
42479;DHT22;28110;47.080;9.476;2023-08-17T00:11:08;21.60;99.90
42479;DHT22;28110;47.080;9.476;2023-08-17T00:13:34;21.60;99.90
42479;DHT22;28110;47.080;9.476;2023-08-17T00:15:59;21.60;99.90
42479;DHT22;28110;47.080;9.476;2023-08-17T00:18:25;21.70;99.90
42479;DHT22;28110;47.080;9.476;2023-08-17T00:20:50;21.70;99.90
42479;DHT22;28110;47.080;9.476;2023-08-17T00:23:16;21.70;99.90
42479;DHT22;28110;47.080;9.476;2023-08-17T00:25:42;21.70;99.90
42479;DHT22;28110;47.080;9.476;2023-08-17T00:28:07;21.70;99.90
42479;DHT22;28110;47.080;9.476;2023-08-17T00:30:33;21.70;99.90
42479;DHT22;28110;47.080;9.476;2023-08-17T00:33:01;21.70;99.90
42479;DHT22;28110;47.080;9.476;2023-08-17T00:35:27;21.60;99.90
42479;DHT22;28110;47.080;9.476;2023-08-17T00:37:53;21.60;99.90
42479;DHT22;28110;47.080;9.476;2023-08-17T00:40:18;21.60;99.90
42479;DHT22;28110;47.080;9.476;2023-08-17T00:42:44;21.60;99.90
42479;DHT22;28110;47.080;9.476;2023-08-17T00:45:10;21.60;99.90
42479;DHT22;28110;47.080;9.476;2023-08-17T00:47:35;21.50;99.90
42479;DHT22;28110;47.080;9.476;2023-08-17T00:50:01;21.50;99.90
42479;DHT22;28110;47.080;9.476;2023-08-17T00:52:27;21.50;99.90
42479;DHT22;28110;47.080;9.476;2023-08-17T00:54:55;21.50;99.90
42479;DHT22;28110;47.080;9.476;2023-08-17T00:57:21;21.50;99.90
42479;DHT22;28110;47.080;9.476;2023-08-17T00:59:46;21.40;99.90
42479;DHT22;28110;47.080;9.476;2023-08-17T01:02:12;21.40;99.90
42479;DHT22;28110;47.080;9.476;2023-08-17T01:04:37;21.40;99.90
42479;DHT22;28110;47.080;9.476;2023-08-17T01:07:03;21.40;99.90
42479;DHT22;28110;47.080;9.476;2023-08-17T01:09:29;21.50;99.90
42479;DHT22;28110;47.080;9.476;2023-08-17T01:12:20;21.40;99.90
42479;DHT22;28110;47.080;9.476;2023-08-17T01:15:08;21.50;99.90
42479;DHT22;28110;47.080;9.476;2023-08-17T01:20:08;21.50;99.90
42479;DHT22;28110;47.080;9.476;2023-08-17T01:22:41;21.50;99.90
42479;DHT22;28110;47.080;9.476;2023-08-17T01:25:07;21.40;99.90
42479;DHT22;28110;47.080;9.476;2023-08-17T01:27:53;21.50;99.90
42479;DHT22;28110;47.080;9.476;2023-08-17T01:30:19;21.50;99.90
42479;DHT22;28110;47.080;9.476;2023-08-17T01:32:54;21.50;99.90
42479;DHT22;28110;47.080;9.476;2023-08-17T01:35:46;21.40;99.90
42479;DHT22;28110;47.080;9.476;2023-08-17T01:38:17;21.40;99.90
42479;DHT22;28110;47.080;9.476;2023-08-17T01:40:45;21.30;99.90
42479;DHT22;28110;47.080;9.476;2023-08-17T01:43:12;21.30;99.90
42479;DHT22;28110;47.080;9.476;2023-08-17T01:45:38;21.30;99.90
42479;DHT22;28110;47.080;9.476;2023-08-17T01:48:03;21.30;99.90
42479;DHT22;28110;47.080;9.476;2023-08-17T01:50:29;21.20;99.90
42479;DHT22;28110;47.080;9.476;2023-08-17T01:52:54;21.20;99.90
42479;DHT22;28110;47.080;9.476;2023-08-17T01:55:21;21.30;99.90
42479;DHT22;28110;47.080;9.476;2023-08-17T01:57:46;21.40;99.90
42479;DHT22;28110;47.080;9.476;2023-08-17T02:00:12;21.30;99.90
42479;DHT22;28110;47.080;9.476;2023-08-17T02:02:38;21.40;99.90
42479;DHT22;28110;47.080;9.476;2023-08-17T02:05:04;21.50;99.90
42479;DHT22;28110;47.080;9.476;2023-08-17T02:07:29;21.50;99.90
42479;DHT22;28110;47.080;9.476;2023-08-17T02:09:55;21.40;99.90
42479;DHT22;28110;47.080;9.476;2023-08-17T02:12:21;21.40;99.90
42479;DHT22;28110;47.080;9.476;2023-08-17T02:14:46;21.30;99.90
42479;DHT22;28110;47.080;9.476;2023-08-17T02:17:12;21.30;99.90
42479;DHT22;28110;47.080;9.476;2023-08-17T02:19:37;21.30;99.90
42479;DHT22;28110;47.080;9.476;2023-08-17T02:22:04;21.30;99.90
42479;DHT22;28110;47.080;9.476;2023-08-17T02:24:30;21.30;99.90
42479;DHT22;28110;47.080;9.476;2023-08-17T02:26:55;21.30;99.90
42479;DHT22;28110;47.080;9.476;2023-08-17T02:29:21;21.20;99.90
42479;DHT22;28110;47.080;9.476;2023-08-17T02:31:46;21.20;99.90
42479;DHT22;28110;47.080;9.476;2023-08-17T02:34:12;21.10;99.90
42479;DHT22;28110;47.080;9.476;2023-08-17T02:36:37;21.10;99.90
42479;DHT22;28110;47.080;9.476;2023-08-17T02:39:03;21.10;99.90
42479;DHT22;28110;47.080;9.476;2023-08-17T02:41:28;21.10;99.90
42479;DHT22;28110;47.080;9.476;2023-08-17T02:43:55;21.10;99.90
42479;DHT22;28110;47.080;9.476;2023-08-17T02:46:21;21.20;99.90
42479;DHT22;28110;47.080;9.476;2023-08-17T02:48:46;21.20;99.90
42479;DHT22;28110;47.080;9.476;2023-08-17T02:51:13;21.20;99.90
42479;DHT22;28110;47.080;9.476;2023-08-17T02:53:38;21.10;99.90
42479;DHT22;28110;47.080;9.476;2023-08-17T02:56:04;21.10;99.90
42479;DHT22;28110;47.080;9.476;2023-08-17T02:58:29;21.10;99.90
42479;DHT22;28110;47.080;9.476;2023-08-17T03:00:55;21.20;99.90
42479;DHT22;28110;47.080;9.476;2023-08-17T03:03:21;21.20;99.90
42479;DHT22;28110;47.080;9.476;2023-08-17T03:05:46;21.20;99.90
42479;DHT22;28110;47.080;9.476;2023-08-17T03:08:12;21.20;99.90
42479;DHT22;28110;47.080;9.476;2023-08-17T03:10:38;21.20;99.90
42479;DHT22;28110;47.080;9.476;2023-08-17T03:13:03;21.20;99.90
42479;DHT22;28110;47.080;9.476;2023-08-17T03:15:29;21.20;99.90
42479;DHT22;28110;47.080;9.476;2023-08-17T03:17:55;21.10;99.90
42479;DHT22;28110;47.080;9.476;2023-08-17T03:20:20;21.20;99.90
42479;DHT22;28110;47.080;9.476;2023-08-17T03:22:46;21.20;99.90
42479;DHT22;28110;47.080;9.476;2023-08-17T03:25:12;21.30;99.90
42479;DHT22;28110;47.080;9.476;2023-08-17T03:27:37;21.30;99.90
42479;DHT22;28110;47.080;9.476;2023-08-17T03:30:04;21.30;99.90
42479;DHT22;28110;47.080;9.476;2023-08-17T03:32:30;21.20;99.90
42479;DHT22;28110;47.080;9.476;2023-08-17T03:34:55;21.20;99.90
42479;DHT22;28110;47.080;9.476;2023-08-17T03:37:21;21.20;99.90
42479;DHT22;28110;47.080;9.476;2023-08-17T03:39:46;21.20;99.90
42479;DHT22;28110;47.080;9.476;2023-08-17T03:42:12;21.20;99.90
42479;DHT22;28110;47.080;9.476;2023-08-17T03:44:37;21.10;99.90
42479;DHT22;28110;47.080;9.476;2023-08-17T03:47:03;21.10;99.90
42479;DHT22;28110;47.080;9.476;2023-08-17T03:49:28;21.10;99.90
42479;DHT22;28110;47.080;9.476;2023-08-17T03:51:54;21.20;99.90
42479;DHT22;28110;47.080;9.476;2023-08-17T03:54:19;21.10;99.90
42479;DHT22;28110;47.080;9.476;2023-08-17T03:56:45;21.10;99.90
42479;DHT22;28110;47.080;9.476;2023-08-17T03:59:11;21.10;99.90
42479;DHT22;28110;47.080;9.476;2023-08-17T04:01:36;21.10;99.90
42479;DHT22;28110;47.080;9.476;2023-08-17T04:04:02;21.10;99.90
42479;DHT22;28110;47.080;9.476;2023-08-17T04:06:27;21.20;99.90
42479;DHT22;28110;47.080;9.476;2023-08-17T04:08:53;21.20;99.90
42479;DHT22;28110;47.080;9.476;2023-08-17T04:11:18;21.20;99.90
42479;DHT22;28110;47.080;9.476;2023-08-17T04:13:44;21.20;99.90
42479;DHT22;28110;47.080;9.476;2023-08-17T04:16:09;21.30;99.90
42479;DHT22;28110;47.080;9.476;2023-08-17T04:18:35;21.20;99.90
42479;DHT22;28110;47.080;9.476;2023-08-17T04:21:01;21.20;99.90
42479;DHT22;28110;47.080;9.476;2023-08-17T04:23:26;21.10;99.90
42479;DHT22;28110;47.080;9.476;2023-08-17T04:25:53;21.00;99.90
42479;DHT22;28110;47.080;9.476;2023-08-17T04:28:19;21.00;99.90
42479;DHT22;28110;47.080;9.476;2023-08-17T04:30:44;20.80;99.90
42479;DHT22;28110;47.080;9.476;2023-08-17T04:33:10;20.70;99.90
42479;DHT22;28110;47.080;9.476;2023-08-17T04:35:36;20.80;99.90
42479;DHT22;28110;47.080;9.476;2023-08-17T04:38:01;20.80;99.90
42479;DHT22;28110;47.080;9.476;2023-08-17T04:40:27;20.80;99.90
42479;DHT22;28110;47.080;9.476;2023-08-17T04:42:53;20.70;99.90
42479;DHT22;28110;47.080;9.476;2023-08-17T04:45:18;20.80;99.90
42479;DHT22;28110;47.080;9.476;2023-08-17T04:47:44;20.70;99.90
42479;DHT22;28110;47.080;9.476;2023-08-17T04:50:10;20.70;99.90
42479;DHT22;28110;47.080;9.476;2023-08-17T04:52:37;20.80;99.90
42479;DHT22;28110;47.080;9.476;2023-08-17T04:55:03;20.90;99.90
42479;DHT22;28110;47.080;9.476;2023-08-17T04:57:29;21.10;99.90
42479;DHT22;28110;47.080;9.476;2023-08-17T04:59:54;21.30;99.90
42479;DHT22;28110;47.080;9.476;2023-08-17T05:02:20;21.40;99.90
42479;DHT22;28110;47.080;9.476;2023-08-17T05:04:46;21.40;99.90
42479;DHT22;28110;47.080;9.476;2023-08-17T05:07:12;21.40;99.90
42479;DHT22;28110;47.080;9.476;2023-08-17T05:09:37;21.40;99.90
42479;DHT22;28110;47.080;9.476;2023-08-17T05:12:03;21.30;99.90
42479;DHT22;28110;47.080;9.476;2023-08-17T05:14:28;21.30;99.90
42479;DHT22;28110;47.080;9.476;2023-08-17T05:16:54;21.40;99.90
42479;DHT22;28110;47.080;9.476;2023-08-17T05:19:19;21.40;99.90
42479;DHT22;28110;47.080;9.476;2023-08-17T05:21:45;21.30;99.90
42479;DHT22;28110;47.080;9.476;2023-08-17T05:24:10;21.40;99.90
42479;DHT22;28110;47.080;9.476;2023-08-17T05:26:36;21.40;99.90
42479;DHT22;28110;47.080;9.476;2023-08-17T05:29:02;21.30;99.90
42479;DHT22;28110;47.080;9.476;2023-08-17T05:31:27;21.30;99.90
42479;DHT22;28110;47.080;9.476;2023-08-17T05:33:53;21.30;99.90
42479;DHT22;28110;47.080;9.476;2023-08-17T05:36:18;21.30;99.90
42479;DHT22;28110;47.080;9.476;2023-08-17T05:38:44;21.40;99.90
42479;DHT22;28110;47.080;9.476;2023-08-17T05:41:09;21.50;99.90
42479;DHT22;28110;47.080;9.476;2023-08-17T05:43:35;21.60;99.90
42479;DHT22;28110;47.080;9.476;2023-08-17T05:46:00;21.60;99.90
42479;DHT22;28110;47.080;9.476;2023-08-17T05:48:26;21.70;99.90
42479;DHT22;28110;47.080;9.476;2023-08-17T05:50:52;21.80;99.90
42479;DHT22;28110;47.080;9.476;2023-08-17T05:53:17;21.80;99.90
42479;DHT22;28110;47.080;9.476;2023-08-17T05:55:43;22.00;99.90
42479;DHT22;28110;47.080;9.476;2023-08-17T05:58:09;22.10;99.90
42479;DHT22;28110;47.080;9.476;2023-08-17T06:00:35;22.20;99.90
42479;DHT22;28110;47.080;9.476;2023-08-17T06:03:00;22.30;99.90
42479;DHT22;28110;47.080;9.476;2023-08-17T06:05:27;22.30;99.90
42479;DHT22;28110;47.080;9.476;2023-08-17T06:07:54;22.40;99.90
42479;DHT22;28110;47.080;9.476;2023-08-17T06:10:20;22.40;99.90
42479;DHT22;28110;47.080;9.476;2023-08-17T06:12:46;22.40;99.90
42479;DHT22;28110;47.080;9.476;2023-08-17T06:15:11;22.50;99.90
42479;DHT22;28110;47.080;9.476;2023-08-17T06:17:37;22.60;99.90
42479;DHT22;28110;47.080;9.476;2023-08-17T06:20:02;22.50;99.90
42479;DHT22;28110;47.080;9.476;2023-08-17T06:22:28;22.50;99.90
42479;DHT22;28110;47.080;9.476;2023-08-17T06:24:54;22.40;99.90
42479;DHT22;28110;47.080;9.476;2023-08-17T06:27:19;22.30;99.90
42479;DHT22;28110;47.080;9.476;2023-08-17T06:29:45;22.30;99.90
42479;DHT22;28110;47.080;9.476;2023-08-17T06:32:11;22.20;99.90
42479;DHT22;28110;47.080;9.476;2023-08-17T06:34:36;22.20;99.90
42479;DHT22;28110;47.080;9.476;2023-08-17T06:37:03;22.30;99.90
42479;DHT22;28110;47.080;9.476;2023-08-17T06:39:28;22.20;99.90
42479;DHT22;28110;47.080;9.476;2023-08-17T06:41:54;22.30;99.90
42479;DHT22;28110;47.080;9.476;2023-08-17T06:44:20;22.30;99.90
42479;DHT22;28110;47.080;9.476;2023-08-17T06:46:46;22.40;99.90
42479;DHT22;28110;47.080;9.476;2023-08-17T06:49:12;22.50;99.90
42479;DHT22;28110;47.080;9.476;2023-08-17T06:51:38;22.50;99.90
42479;DHT22;28110;47.080;9.476;2023-08-17T06:54:04;22.60;99.90
42479;DHT22;28110;47.080;9.476;2023-08-17T06:56:30;22.70;99.90
42479;DHT22;28110;47.080;9.476;2023-08-17T06:58:56;22.80;99.90
42479;DHT22;28110;47.080;9.476;2023-08-17T07:01:21;22.80;99.90
42479;DHT22;28110;47.080;9.476;2023-08-17T07:03:47;22.80;99.90
42479;DHT22;28110;47.080;9.476;2023-08-17T07:06:13;22.80;99.90
42479;DHT22;28110;47.080;9.476;2023-08-17T07:08:38;22.80;99.90
42479;DHT22;28110;47.080;9.476;2023-08-17T07:11:04;23.00;99.90
42479;DHT22;28110;47.080;9.476;2023-08-17T07:13:31;23.10;99.90
42479;DHT22;28110;47.080;9.476;2023-08-17T07:15:57;23.30;99.90
42479;DHT22;28110;47.080;9.476;2023-08-17T07:18:22;23.40;99.90
42479;DHT22;28110;47.080;9.476;2023-08-17T07:20:48;23.30;99.90
42479;DHT22;28110;47.080;9.476;2023-08-17T07:23:14;23.30;99.90
42479;DHT22;28110;47.080;9.476;2023-08-17T07:25:40;23.30;99.90
42479;DHT22;28110;47.080;9.476;2023-08-17T07:28:06;23.30;99.90
42479;DHT22;28110;47.080;9.476;2023-08-17T07:30:31;23.40;99.90
42479;DHT22;28110;47.080;9.476;2023-08-17T07:32:57;23.40;99.90
42479;DHT22;28110;47.080;9.476;2023-08-17T07:35:22;23.50;99.90
42479;DHT22;28110;47.080;9.476;2023-08-17T07:37:48;23.60;99.90
42479;DHT22;28110;47.080;9.476;2023-08-17T07:40:13;23.80;99.90
42479;DHT22;28110;47.080;9.476;2023-08-17T07:42:39;23.90;99.90
42479;DHT22;28110;47.080;9.476;2023-08-17T07:45:04;24.00;99.90
42479;DHT22;28110;47.080;9.476;2023-08-17T07:47:34;24.10;99.90
42479;DHT22;28110;47.080;9.476;2023-08-17T07:50:00;24.40;99.90
42479;DHT22;28110;47.080;9.476;2023-08-17T07:52:26;24.60;99.90
42479;DHT22;28110;47.080;9.476;2023-08-17T07:54:51;24.70;99.90
42479;DHT22;28110;47.080;9.476;2023-08-17T07:57:17;24.70;99.90
42479;DHT22;28110;47.080;9.476;2023-08-17T07:59:42;24.70;99.90
42479;DHT22;28110;47.080;9.476;2023-08-17T08:02:08;24.80;99.90
42479;DHT22;28110;47.080;9.476;2023-08-17T08:04:33;24.90;99.90
42479;DHT22;28110;47.080;9.476;2023-08-17T08:06:59;24.90;99.90
42479;DHT22;28110;47.080;9.476;2023-08-17T08:09:24;25.00;99.90
42479;DHT22;28110;47.080;9.476;2023-08-17T08:11:50;25.10;99.90
42479;DHT22;28110;47.080;9.476;2023-08-17T08:14:16;25.20;99.70
42479;DHT22;28110;47.080;9.476;2023-08-17T08:16:42;25.40;98.70
42479;DHT22;28110;47.080;9.476;2023-08-17T08:19:07;25.50;98.60
42479;DHT22;28110;47.080;9.476;2023-08-17T08:21:33;25.60;98.40
42479;DHT22;28110;47.080;9.476;2023-08-17T08:23:58;25.70;97.90
42479;DHT22;28110;47.080;9.476;2023-08-17T08:26:24;25.80;98.10
42479;DHT22;28110;47.080;9.476;2023-08-17T08:28:50;26.00;98.20
42479;DHT22;28110;47.080;9.476;2023-08-17T08:31:15;26.20;98.30
42479;DHT22;28110;47.080;9.476;2023-08-17T08:33:41;26.30;96.80
42479;DHT22;28110;47.080;9.476;2023-08-17T08:36:06;26.30;96.50
42479;DHT22;28110;47.080;9.476;2023-08-17T08:38:32;26.50;97.10
42479;DHT22;28110;47.080;9.476;2023-08-17T08:40:58;26.50;97.80
42479;DHT22;28110;47.080;9.476;2023-08-17T08:43:24;26.60;97.90
42479;DHT22;28110;47.080;9.476;2023-08-17T08:45:51;26.80;97.70
42479;DHT22;28110;47.080;9.476;2023-08-17T08:48:18;26.90;98.10
42479;DHT22;28110;47.080;9.476;2023-08-17T08:50:45;26.90;96.90
42479;DHT22;28110;47.080;9.476;2023-08-17T08:53:17;27.00;98.20
42479;DHT22;28110;47.080;9.476;2023-08-17T08:55:55;27.10;98.60
42479;DHT22;28110;47.080;9.476;2023-08-17T08:58:23;27.20;97.70
42479;DHT22;28110;47.080;9.476;2023-08-17T09:00:50;27.30;97.10
42479;DHT22;28110;47.080;9.476;2023-08-17T09:03:16;27.30;98.00
42479;DHT22;28110;47.080;9.476;2023-08-17T09:05:49;27.40;97.10
42479;DHT22;28110;47.080;9.476;2023-08-17T09:08:20;27.50;98.10
42479;DHT22;28110;47.080;9.476;2023-08-17T09:10:46;27.70;97.00
42479;DHT22;28110;47.080;9.476;2023-08-17T09:13:12;27.70;96.30
42479;DHT22;28110;47.080;9.476;2023-08-17T09:15:38;27.80;96.70
42479;DHT22;28110;47.080;9.476;2023-08-17T09:18:05;27.90;96.80
42479;DHT22;28110;47.080;9.476;2023-08-17T09:20:40;28.00;96.80
42479;DHT22;28110;47.080;9.476;2023-08-17T09:23:14;28.00;96.50
42479;DHT22;28110;47.080;9.476;2023-08-17T09:25:41;28.10;96.50
42479;DHT22;28110;47.080;9.476;2023-08-17T09:28:11;28.10;96.10
42479;DHT22;28110;47.080;9.476;2023-08-17T09:30:57;28.00;95.50
42479;DHT22;28110;47.080;9.476;2023-08-17T09:33:26;28.00;97.30
42479;DHT22;28110;47.080;9.476;2023-08-17T09:35:52;28.00;97.20
42479;DHT22;28110;47.080;9.476;2023-08-17T09:38:18;28.10;96.70
42479;DHT22;28110;47.080;9.476;2023-08-17T09:40:45;28.20;97.20
42479;DHT22;28110;47.080;9.476;2023-08-17T09:43:11;28.30;97.90
42479;DHT22;28110;47.080;9.476;2023-08-17T09:45:38;28.50;97.20
42479;DHT22;28110;47.080;9.476;2023-08-17T09:48:06;28.50;97.20
42479;DHT22;28110;47.080;9.476;2023-08-17T09:50:32;28.40;96.50
42479;DHT22;28110;47.080;9.476;2023-08-17T09:52:58;28.30;97.20
42479;DHT22;28110;47.080;9.476;2023-08-17T09:55:24;28.30;97.10
42479;DHT22;28110;47.080;9.476;2023-08-17T09:57:50;28.30;97.40
42479;DHT22;28110;47.080;9.476;2023-08-17T10:00:17;28.30;97.40
42479;DHT22;28110;47.080;9.476;2023-08-17T10:02:44;28.10;97.40
42479;DHT22;28110;47.080;9.476;2023-08-17T10:05:11;28.20;97.80
42479;DHT22;28110;47.080;9.476;2023-08-17T10:07:40;28.50;98.40
42479;DHT22;28110;47.080;9.476;2023-08-17T10:10:09;28.70;97.00
42479;DHT22;28110;47.080;9.476;2023-08-17T10:12:45;28.70;96.00
42479;DHT22;28110;47.080;9.476;2023-08-17T10:15:15;28.90;96.30
42479;DHT22;28110;47.080;9.476;2023-08-17T10:17:53;29.00;96.40
42479;DHT22;28110;47.080;9.476;2023-08-17T10:20:20;29.20;96.20
42479;DHT22;28110;47.080;9.476;2023-08-17T10:23:06;29.40;95.50
42479;DHT22;28110;47.080;9.476;2023-08-17T10:25:33;29.60;94.60
42479;DHT22;28110;47.080;9.476;2023-08-17T10:28:00;29.60;94.20
42479;DHT22;28110;47.080;9.476;2023-08-17T10:30:29;29.80;95.90
42479;DHT22;28110;47.080;9.476;2023-08-17T10:32:55;29.90;95.90
42479;DHT22;28110;47.080;9.476;2023-08-17T10:35:21;30.00;94.40
42479;DHT22;28110;47.080;9.476;2023-08-17T10:37:47;29.90;94.90
42479;DHT22;28110;47.080;9.476;2023-08-17T10:40:13;29.90;94.70
42479;DHT22;28110;47.080;9.476;2023-08-17T10:42:38;29.90;94.70
42479;DHT22;28110;47.080;9.476;2023-08-17T10:50:31;29.50;93.90
42479;DHT22;28110;47.080;9.476;2023-08-17T10:52:58;29.60;94.10
42479;DHT22;28110;47.080;9.476;2023-08-17T10:55:42;29.60;93.70
42479;DHT22;28110;47.080;9.476;2023-08-17T10:58:09;29.50;93.20
42479;DHT22;28110;47.080;9.476;2023-08-17T11:00:37;29.30;92.90
42479;DHT22;28110;47.080;9.476;2023-08-17T11:03:16;29.00;93.10
42479;DHT22;28110;47.080;9.476;2023-08-17T11:05:50;28.80;94.30
42479;DHT22;28110;47.080;9.476;2023-08-17T11:11:10;28.30;96.10
42479;DHT22;28110;47.080;9.476;2023-08-17T11:13:38;28.20;99.90
42479;DHT22;28110;47.080;9.476;2023-08-17T11:16:05;27.90;99.90
42479;DHT22;28110;47.080;9.476;2023-08-17T11:18:34;27.80;99.90
42479;DHT22;28110;47.080;9.476;2023-08-17T11:21:02;27.50;99.90
42479;DHT22;28110;47.080;9.476;2023-08-17T11:23:29;27.20;99.90
42479;DHT22;28110;47.080;9.476;2023-08-17T11:25:55;26.80;99.90
42479;DHT22;28110;47.080;9.476;2023-08-17T11:28:21;26.40;99.90
42479;DHT22;28110;47.080;9.476;2023-08-17T11:30:57;26.20;99.90
42479;DHT22;28110;47.080;9.476;2023-08-17T11:33:25;25.70;99.90
42479;DHT22;28110;47.080;9.476;2023-08-17T11:35:50;25.40;99.90
42479;DHT22;28110;47.080;9.476;2023-08-17T11:38:16;25.10;99.90
42479;DHT22;28110;47.080;9.476;2023-08-17T11:40:42;24.80;99.90
42479;DHT22;28110;47.080;9.476;2023-08-17T11:43:07;24.60;99.90
42479;DHT22;28110;47.080;9.476;2023-08-17T11:45:33;24.30;99.90
42479;DHT22;28110;47.080;9.476;2023-08-17T11:47:59;24.10;99.90
42479;DHT22;28110;47.080;9.476;2023-08-17T11:50:25;24.00;99.90
42479;DHT22;28110;47.080;9.476;2023-08-17T11:52:52;24.00;99.90
42479;DHT22;28110;47.080;9.476;2023-08-17T11:55:17;23.80;99.90
42479;DHT22;28110;47.080;9.476;2023-08-17T11:57:45;23.70;99.90
42479;DHT22;28110;47.080;9.476;2023-08-17T12:00:18;23.50;99.90
42479;DHT22;28110;47.080;9.476;2023-08-17T12:02:47;23.40;99.90
42479;DHT22;28110;47.080;9.476;2023-08-17T12:05:13;23.30;99.90
42479;DHT22;28110;47.080;9.476;2023-08-17T12:07:39;23.20;99.90
42479;DHT22;28110;47.080;9.476;2023-08-17T12:10:05;23.10;99.90
42479;DHT22;28110;47.080;9.476;2023-08-17T12:12:30;23.20;99.90
42479;DHT22;28110;47.080;9.476;2023-08-17T12:14:57;23.20;99.90
42479;DHT22;28110;47.080;9.476;2023-08-17T12:17:23;23.20;99.90
42479;DHT22;28110;47.080;9.476;2023-08-17T12:19:49;23.10;99.90
42479;DHT22;28110;47.080;9.476;2023-08-17T12:22:16;23.00;99.90
42479;DHT22;28110;47.080;9.476;2023-08-17T12:24:42;23.00;99.90
42479;DHT22;28110;47.080;9.476;2023-08-17T12:27:09;23.00;99.90
42479;DHT22;28110;47.080;9.476;2023-08-17T12:29:48;23.10;99.90
42479;DHT22;28110;47.080;9.476;2023-08-17T12:32:18;23.20;99.90
42479;DHT22;28110;47.080;9.476;2023-08-17T12:34:45;23.40;99.90
42479;DHT22;28110;47.080;9.476;2023-08-17T12:37:12;23.50;99.90
42479;DHT22;28110;47.080;9.476;2023-08-17T12:39:38;23.60;99.90
42479;DHT22;28110;47.080;9.476;2023-08-17T12:42:04;23.90;99.90
42479;DHT22;28110;47.080;9.476;2023-08-17T12:44:30;24.10;99.90
42479;DHT22;28110;47.080;9.476;2023-08-17T12:46:56;24.30;99.90
42479;DHT22;28110;47.080;9.476;2023-08-17T12:49:23;24.40;99.90
42479;DHT22;28110;47.080;9.476;2023-08-17T12:51:48;24.60;99.90
42479;DHT22;28110;47.080;9.476;2023-08-17T12:54:14;24.70;99.90
42479;DHT22;28110;47.080;9.476;2023-08-17T12:56:39;24.70;99.90
42479;DHT22;28110;47.080;9.476;2023-08-17T12:59:05;24.80;99.90
42479;DHT22;28110;47.080;9.476;2023-08-17T13:01:30;24.90;99.90
42479;DHT22;28110;47.080;9.476;2023-08-17T13:03:56;24.90;99.90
42479;DHT22;28110;47.080;9.476;2023-08-17T13:06:22;24.80;99.90
42479;DHT22;28110;47.080;9.476;2023-08-17T13:08:47;24.80;99.90
42479;DHT22;28110;47.080;9.476;2023-08-17T13:11:13;24.70;99.90
42479;DHT22;28110;47.080;9.476;2023-08-17T13:13:38;24.70;99.90
42479;DHT22;28110;47.080;9.476;2023-08-17T13:16:04;24.70;99.90
42479;DHT22;28110;47.080;9.476;2023-08-17T13:18:29;24.70;99.90
42479;DHT22;28110;47.080;9.476;2023-08-17T13:20:55;24.60;99.90
42479;DHT22;28110;47.080;9.476;2023-08-17T13:23:20;24.60;99.90
42479;DHT22;28110;47.080;9.476;2023-08-17T13:25:46;24.60;99.90
42479;DHT22;28110;47.080;9.476;2023-08-17T13:28:11;24.50;99.90
42479;DHT22;28110;47.080;9.476;2023-08-17T13:30:38;24.40;99.90
42479;DHT22;28110;47.080;9.476;2023-08-17T13:33:04;24.40;99.90
42479;DHT22;28110;47.080;9.476;2023-08-17T13:35:32;24.30;99.90
42479;DHT22;28110;47.080;9.476;2023-08-17T13:37:57;24.40;99.90
42479;DHT22;28110;47.080;9.476;2023-08-17T13:40:23;24.30;99.90
42479;DHT22;28110;47.080;9.476;2023-08-17T13:42:49;24.30;99.90
42479;DHT22;28110;47.080;9.476;2023-08-17T13:45:14;24.20;99.90
42479;DHT22;28110;47.080;9.476;2023-08-17T13:47:40;24.30;99.90
42479;DHT22;28110;47.080;9.476;2023-08-17T13:50:06;24.20;99.90
42479;DHT22;28110;47.080;9.476;2023-08-17T13:52:31;24.20;99.90
42479;DHT22;28110;47.080;9.476;2023-08-17T13:54:57;24.20;99.90
42479;DHT22;28110;47.080;9.476;2023-08-17T13:57:23;24.10;99.90
42479;DHT22;28110;47.080;9.476;2023-08-17T13:59:48;24.00;99.90
42479;DHT22;28110;47.080;9.476;2023-08-17T14:02:14;24.00;99.90
42479;DHT22;28110;47.080;9.476;2023-08-17T14:04:39;24.00;99.90
42479;DHT22;28110;47.080;9.476;2023-08-17T14:07:05;23.90;99.90
42479;DHT22;28110;47.080;9.476;2023-08-17T14:09:30;23.70;99.90
42479;DHT22;28110;47.080;9.476;2023-08-17T14:11:56;23.60;99.90
42479;DHT22;28110;47.080;9.476;2023-08-17T14:14:22;23.40;99.90
42479;DHT22;28110;47.080;9.476;2023-08-17T14:16:47;23.20;99.90
42479;DHT22;28110;47.080;9.476;2023-08-17T14:19:13;23.00;99.90
42479;DHT22;28110;47.080;9.476;2023-08-17T14:21:38;22.90;99.90
42479;DHT22;28110;47.080;9.476;2023-08-17T14:24:04;22.70;99.90
42479;DHT22;28110;47.080;9.476;2023-08-17T14:26:31;22.70;99.90
42479;DHT22;28110;47.080;9.476;2023-08-17T14:28:57;22.70;99.90
42479;DHT22;28110;47.080;9.476;2023-08-17T14:31:22;22.60;99.90
42479;DHT22;28110;47.080;9.476;2023-08-17T14:33:48;22.60;99.90
42479;DHT22;28110;47.080;9.476;2023-08-17T14:36:15;22.60;99.90
42479;DHT22;28110;47.080;9.476;2023-08-17T14:38:40;22.50;99.90
42479;DHT22;28110;47.080;9.476;2023-08-17T14:41:06;22.50;99.90
42479;DHT22;28110;47.080;9.476;2023-08-17T14:43:33;22.40;99.90
42479;DHT22;28110;47.080;9.476;2023-08-17T14:45:59;22.30;99.90
42479;DHT22;28110;47.080;9.476;2023-08-17T14:48:25;22.20;99.90
42479;DHT22;28110;47.080;9.476;2023-08-17T14:50:51;22.10;99.90
42479;DHT22;28110;47.080;9.476;2023-08-17T14:53:16;22.00;99.90
42479;DHT22;28110;47.080;9.476;2023-08-17T14:55:42;21.80;99.90
42479;DHT22;28110;47.080;9.476;2023-08-17T14:58:07;21.60;99.90
42479;DHT22;28110;47.080;9.476;2023-08-17T15:00:33;21.40;99.90
42479;DHT22;28110;47.080;9.476;2023-08-17T15:02:58;21.30;99.90
42479;DHT22;28110;47.080;9.476;2023-08-17T15:05:24;21.20;99.90
42479;DHT22;28110;47.080;9.476;2023-08-17T15:07:50;21.10;99.90
42479;DHT22;28110;47.080;9.476;2023-08-17T15:10:16;21.00;99.90
42479;DHT22;28110;47.080;9.476;2023-08-17T15:12:41;21.00;99.90
42479;DHT22;28110;47.080;9.476;2023-08-17T15:15:07;20.90;99.90
42479;DHT22;28110;47.080;9.476;2023-08-17T15:17:33;20.90;99.90
42479;DHT22;28110;47.080;9.476;2023-08-17T15:20:00;20.90;99.90
42479;DHT22;28110;47.080;9.476;2023-08-17T15:22:26;20.80;99.90
42479;DHT22;28110;47.080;9.476;2023-08-17T15:24:52;20.80;99.90
42479;DHT22;28110;47.080;9.476;2023-08-17T15:27:17;20.70;99.90
42479;DHT22;28110;47.080;9.476;2023-08-17T15:29:43;20.70;99.90
42479;DHT22;28110;47.080;9.476;2023-08-17T15:32:09;20.60;99.90
42479;DHT22;28110;47.080;9.476;2023-08-17T15:34:35;20.60;99.90
42479;DHT22;28110;47.080;9.476;2023-08-17T15:37:00;20.70;99.90